createdAt,value
2022-08-23T00:01:31.130Z,50.18
2022-08-23T00:04:06.865Z,49.87
2022-08-23T00:06:34.202Z,49.72
2022-08-23T00:09:02.706Z,50.48
2022-08-23T00:11:55.580Z,49.73
2022-08-23T00:14:27.775Z,49.59
2022-08-23T00:16:57.142Z,49.95
2022-08-23T00:19:25.758Z,50.02
2022-08-23T00:21:56.025Z,49.16
2022-08-23T00:24:25.092Z,48.90
2022-08-23T00:27:07.352Z,49.31
2022-08-23T00:29:40.341Z,49.08
2022-08-23T00:32:11.478Z,48.74
2022-08-23T00:34:40.211Z,48.83
2022-08-23T00:37:09.213Z,49.14
2022-08-23T00:39:37.257Z,48.97
2022-08-23T00:42:30.122Z,48.35
2022-08-23T00:45:19.103Z,47.76
2022-08-23T00:47:46.934Z,47.94
2022-08-23T00:50:26.083Z,47.81
2022-08-23T00:53:13.674Z,47.67
2022-08-23T00:55:44.395Z,47.07
2022-08-23T00:58:14.148Z,47.42
2022-08-23T01:00:41.628Z,46.88
2022-08-23T01:03:11.342Z,47.10
2022-08-23T01:05:52.651Z,47.51
2022-08-23T01:08:23.652Z,47.86
2022-08-23T01:10:57.674Z,48.76
2022-08-23T01:13:37.843Z,48.65
2022-08-23T01:16:13.378Z,48.89
2022-08-23T01:18:43.245Z,48.78
2022-08-23T01:21:18.379Z,48.13
2022-08-23T01:23:53.175Z,48.17
2022-08-23T01:26:23.573Z,47.58
2022-08-23T01:28:52.602Z,47.33
2022-08-23T01:31:23.082Z,47.24
2022-08-23T01:33:56.281Z,47.58
2022-08-23T01:36:24.406Z,47.72
2022-08-23T01:38:53.274Z,47.78
2022-08-23T01:41:20.650Z,47.65
2022-08-23T01:43:48.348Z,47.66
2022-08-23T01:46:21.969Z,48.43
2022-08-23T01:48:51.409Z,48.57
2022-08-23T01:51:20.835Z,48.70
2022-08-23T01:53:49.370Z,48.90
2022-08-23T01:56:27.542Z,48.59
2022-08-23T01:59:09.049Z,48.71
2022-08-23T02:01:41.473Z,48.50
2022-08-23T02:04:09.079Z,48.39
2022-08-23T02:06:36.450Z,49.25
2022-08-23T02:09:07.148Z,49.54
2022-08-23T02:11:46.804Z,49.49
2022-08-23T02:14:18.575Z,49.42
2022-08-23T02:16:59.999Z,50.30
2022-08-23T02:19:34.857Z,50.27
2022-08-23T02:22:04.877Z,50.14
2022-08-23T02:24:32.906Z,49.86
2022-08-23T02:27:05.060Z,50.07
2022-08-23T02:29:37.606Z,50.94
2022-08-23T02:32:09.676Z,51.37
2022-08-23T02:34:37.522Z,52.19
2022-08-23T02:37:07.693Z,51.55
2022-08-23T02:39:35.947Z,52.24
2022-08-23T02:42:07.635Z,51.80
2022-08-23T02:44:38.349Z,51.94
2022-08-23T02:47:08.849Z,52.70
2022-08-23T02:49:38.266Z,52.64
2022-08-23T02:52:06.654Z,53.63
2022-08-23T02:54:35.632Z,53.60
2022-08-23T02:57:03.443Z,53.88
2022-08-23T02:59:31.499Z,53.95
2022-08-23T03:01:59.568Z,53.92
2022-08-23T03:04:35.261Z,54.37
2022-08-23T03:07:02.909Z,54.20
2022-08-23T03:09:30.351Z,53.72
2022-08-23T03:11:57.980Z,54.21
2022-08-23T03:14:27.388Z,54.16
2022-08-23T03:16:56.087Z,53.70
2022-08-23T03:19:26.391Z,53.96
2022-08-23T03:21:53.728Z,54.69
2022-08-23T03:24:22.724Z,54.72
2022-08-23T03:26:50.087Z,54.38
2022-08-23T03:29:18.829Z,54.54
2022-08-23T03:32:07.510Z,55.24
2022-08-23T03:34:37.828Z,55.78
2022-08-23T03:37:07.439Z,54.82
2022-08-23T03:39:35.681Z,54.64
2022-08-23T03:42:03.497Z,54.54
2022-08-23T03:44:33.723Z,54.50
2022-08-23T03:47:01.450Z,53.71
2022-08-23T03:49:29.634Z,52.64
2022-08-23T03:51:58.436Z,52.10
2022-08-23T03:54:27.478Z,52.62
2022-08-23T03:57:13.659Z,52.35
2022-08-23T03:59:42.631Z,52.18
2022-08-23T04:02:12.158Z,51.88
2022-08-23T04:04:39.766Z,51.64
2022-08-23T04:07:42.411Z,51.21
2022-08-23T04:10:13.700Z,52.01
2022-08-23T04:12:59.785Z,52.04
2022-08-23T04:15:27.235Z,51.66
2022-08-23T04:17:54.634Z,52.52
2022-08-23T04:20:23.443Z,52.84
2022-08-23T04:22:55.730Z,52.72
2022-08-23T04:25:33.581Z,53.15
2022-08-23T04:28:03.794Z,52.75
2022-08-23T04:30:32.898Z,53.25
2022-08-23T04:33:01.743Z,53.27
2022-08-23T04:35:33.123Z,53.33
2022-08-23T04:38:01.021Z,53.56
2022-08-23T04:40:47.174Z,53.36
2022-08-23T04:43:17.031Z,53.78
2022-08-23T04:45:45.114Z,53.30
2022-08-23T04:48:23.559Z,53.96
2022-08-23T04:50:51.252Z,54.35
2022-08-23T04:53:20.824Z,54.75
2022-08-23T04:56:04.536Z,54.66
2022-08-23T04:58:33.738Z,55.16
2022-08-23T05:01:04.627Z,55.63
2022-08-23T05:03:32.126Z,55.14
2022-08-23T05:06:01.231Z,54.70
2022-08-23T05:08:35.967Z,54.92
2022-08-23T05:11:08.171Z,55.80
2022-08-23T05:13:38.568Z,55.43
2022-08-23T05:16:08.125Z,55.16
2022-08-23T05:18:40.970Z,54.79
2022-08-23T05:21:14.683Z,55.38
2022-08-23T05:23:42.434Z,55.10
2022-08-23T05:26:19.086Z,55.91
2022-08-23T05:28:49.062Z,55.99
2022-08-23T05:31:23.426Z,54.66
2022-08-23T05:33:53.799Z,55.50
2022-08-23T05:36:55.405Z,56.06
2022-08-23T05:39:36.080Z,56.34
2022-08-23T05:42:12.293Z,56.93
2022-08-23T05:44:39.913Z,56.61
2022-08-23T05:47:15.636Z,56.73
2022-08-23T05:50:06.565Z,57.08
2022-08-23T05:52:36.858Z,56.89
2022-08-23T05:55:06.543Z,56.71
2022-08-23T05:57:38.340Z,57.41
2022-08-23T06:00:11.041Z,56.61
2022-08-23T06:02:46.899Z,57.50
2022-08-23T06:05:15.657Z,57.95
2022-08-23T06:07:44.734Z,57.42
2022-08-23T06:10:15.864Z,57.23
2022-08-23T06:12:48.306Z,56.93
2022-08-23T06:15:15.818Z,56.65
2022-08-23T06:17:43.360Z,57.93
2022-08-23T06:20:11.122Z,57.87
2022-08-23T06:22:56.117Z,58.70
2022-08-23T06:25:23.430Z,58.04
2022-08-23T06:27:55.001Z,59.21
2022-08-23T06:30:24.034Z,58.96
2022-08-23T06:33:13.888Z,59.05
2022-08-23T06:35:48.326Z,58.98
2022-08-23T06:38:27.136Z,56.34
2022-08-23T06:41:12.100Z,52.90
2022-08-23T06:43:43.074Z,49.03
2022-08-23T06:46:30.515Z,45.29
2022-08-23T06:48:59.555Z,41.20
2022-08-23T06:51:41.861Z,41.62
2022-08-23T06:54:20.489Z,39.52
2022-08-23T06:56:58.569Z,38.04
2022-08-23T06:59:29.963Z,40.40
2022-08-23T07:01:59.846Z,42.26
2022-08-23T07:04:53.786Z,46.17
2022-08-23T07:07:39.756Z,45.98
2022-08-23T07:10:12.118Z,48.23
2022-08-23T07:12:42.586Z,48.79
2022-08-23T07:15:13.039Z,48.80
2022-08-23T07:17:43.771Z,49.21
2022-08-23T07:20:11.330Z,49.88
2022-08-23T07:22:41.366Z,49.07
2022-08-23T07:25:10.394Z,49.31
2022-08-23T07:27:39.519Z,49.36
2022-08-23T07:30:08.869Z,50.48
2022-08-23T07:32:38.550Z,50.02
2022-08-23T07:35:27.922Z,49.25
2022-08-23T07:37:57.985Z,48.81
2022-08-23T07:40:30.508Z,48.80
2022-08-23T07:43:03.139Z,49.07
2022-08-23T07:45:31.398Z,48.30
2022-08-23T07:48:02.710Z,49.86
2022-08-23T07:50:35.386Z,47.99
2022-08-23T07:53:04.050Z,50.46
2022-08-23T07:55:31.573Z,48.65
2022-08-23T07:58:08.687Z,48.69
2022-08-23T08:00:51.377Z,48.86
2022-08-23T08:03:43.872Z,46.95
2022-08-23T08:06:31.694Z,48.15
2022-08-23T08:09:00.155Z,47.15
2022-08-23T08:11:34.821Z,48.63
2022-08-23T08:14:08.773Z,46.43
2022-08-23T08:16:43.463Z,46.09
2022-08-23T08:19:15.144Z,46.07
2022-08-23T08:22:01.353Z,47.10
2022-08-23T08:24:54.552Z,44.84
2022-08-23T08:27:21.989Z,44.22
2022-08-23T08:29:49.463Z,45.15
2022-08-23T08:32:16.815Z,44.79
2022-08-23T08:34:45.152Z,45.10
2022-08-23T08:37:12.758Z,46.69
2022-08-23T08:39:45.714Z,44.85
2022-08-23T08:42:31.553Z,45.17
2022-08-23T08:45:05.381Z,44.24
2022-08-23T08:47:49.646Z,43.21
2022-08-23T08:50:24.242Z,43.05
2022-08-23T08:53:08.422Z,42.93
2022-08-23T08:56:34.487Z,43.07
2022-08-23T08:59:29.089Z,41.50
2022-08-23T09:01:58.314Z,40.84
2022-08-23T09:04:32.873Z,39.38
2022-08-23T09:07:16.030Z,41.08
2022-08-23T09:10:31.620Z,41.99
2022-08-23T09:13:25.167Z,39.55
2022-08-23T09:16:08.339Z,39.37
2022-08-23T09:18:37.265Z,39.88
2022-08-23T09:21:07.705Z,40.76
2022-08-23T09:23:48.922Z,39.34
2022-08-23T09:26:39.713Z,39.30
2022-08-23T09:29:24.377Z,37.89
2022-08-23T09:32:02.062Z,37.49
2022-08-23T09:34:37.518Z,38.16
2022-08-23T09:37:18.161Z,38.17
2022-08-23T09:39:52.105Z,38.95
2022-08-23T09:42:27.202Z,36.76
2022-08-23T09:44:54.660Z,35.79
2022-08-23T09:47:44.899Z,36.26
2022-08-23T09:50:26.172Z,37.27
2022-08-23T09:53:15.429Z,38.75
2022-08-23T09:55:50.047Z,36.22
2022-08-23T09:58:32.231Z,36.62
2022-08-23T10:01:25.895Z,37.80
2022-08-23T10:04:14.416Z,37.67
2022-08-23T10:06:46.087Z,37.72
2022-08-23T10:09:33.694Z,35.15
2022-08-23T10:12:05.002Z,34.89
2022-08-23T10:14:35.037Z,36.25
2022-08-23T10:17:14.676Z,36.78
2022-08-23T10:19:49.581Z,36.85
2022-08-23T10:22:23.649Z,37.74
2022-08-23T10:25:30.371Z,36.73
2022-08-23T10:28:24.339Z,37.13
2022-08-23T10:31:23.072Z,37.83
2022-08-23T10:34:12.491Z,35.34
2022-08-23T10:37:14.425Z,37.26
2022-08-23T10:39:52.981Z,35.66
2022-08-23T10:42:55.492Z,36.54
2022-08-23T10:45:31.613Z,36.34
2022-08-23T10:48:16.087Z,37.33
2022-08-23T10:50:52.092Z,36.39
2022-08-23T10:53:32.192Z,35.71
2022-08-23T10:56:03.090Z,36.73
2022-08-23T10:58:48.126Z,35.24
2022-08-23T11:01:21.382Z,34.78
2022-08-23T11:04:02.565Z,35.21
2022-08-23T11:06:37.481Z,34.97
2022-08-23T11:09:28.238Z,35.48
2022-08-23T11:12:19.070Z,38.12
2022-08-23T11:14:55.942Z,36.91
2022-08-23T11:17:49.778Z,36.10
2022-08-23T11:20:51.093Z,35.89
2022-08-23T11:23:38.561Z,37.18
2022-08-23T11:26:27.732Z,35.73
2022-08-23T11:29:04.205Z,35.82
2022-08-23T11:31:57.207Z,35.93
2022-08-23T11:34:29.875Z,35.94
2022-08-23T11:37:20.067Z,37.81
2022-08-23T11:39:58.162Z,35.84
2022-08-23T11:43:02.968Z,36.56
2022-08-23T11:45:43.610Z,36.53
2022-08-23T11:48:37.187Z,38.04
2022-08-23T11:51:59.096Z,36.31
2022-08-23T11:54:29.445Z,34.66
2022-08-23T11:57:02.463Z,34.51
2022-08-23T11:59:43.301Z,34.46
2022-08-23T12:02:32.479Z,35.64
2022-08-23T12:05:06.498Z,34.76
2022-08-23T12:07:51.085Z,33.77
2022-08-23T12:10:43.115Z,34.52
2022-08-23T12:13:22.515Z,34.97
2022-08-23T12:16:16.736Z,34.35
2022-08-23T12:18:57.366Z,33.98
2022-08-23T12:21:34.311Z,33.71
2022-08-23T12:24:33.570Z,30.36
2022-08-23T12:27:22.185Z,32.52
2022-08-23T12:30:05.415Z,33.44
2022-08-23T12:32:58.979Z,34.04
2022-08-23T12:35:26.289Z,32.06
2022-08-23T12:37:56.623Z,32.86
2022-08-23T12:40:37.634Z,33.32
2022-08-23T12:43:26.259Z,34.94
2022-08-23T12:46:00.963Z,35.19
2022-08-23T12:48:32.848Z,33.71
2022-08-23T12:51:03.886Z,34.29
2022-08-23T12:53:34.844Z,35.35
2022-08-23T12:56:09.003Z,33.64
2022-08-23T12:58:39.393Z,33.11
2022-08-23T13:01:18.287Z,33.39
2022-08-23T13:03:51.030Z,34.11
2022-08-23T13:06:26.738Z,32.32
2022-08-23T13:09:09.282Z,32.04
2022-08-23T13:11:38.230Z,34.73
2022-08-23T13:14:29.489Z,35.37
2022-08-23T13:17:31.411Z,35.75
2022-08-23T13:20:01.747Z,34.33
2022-08-23T13:22:31.099Z,34.83
2022-08-23T13:25:27.378Z,34.81
2022-08-23T13:27:57.046Z,34.08
2022-08-23T13:30:34.075Z,34.34
2022-08-23T13:33:04.201Z,32.85
2022-08-23T13:35:40.635Z,31.72
2022-08-23T13:38:08.292Z,31.33
2022-08-23T13:41:02.961Z,33.56
2022-08-23T13:43:33.271Z,34.17
2022-08-23T13:46:15.114Z,35.17
2022-08-23T13:48:51.963Z,34.33
2022-08-23T13:51:32.723Z,35.04
2022-08-23T13:54:08.942Z,33.80
2022-08-23T13:56:49.663Z,35.38
2022-08-23T13:59:37.546Z,34.39
2022-08-23T14:02:09.157Z,33.53
2022-08-23T14:04:36.391Z,34.23
2022-08-23T14:07:05.003Z,35.26
2022-08-23T14:09:35.392Z,35.24
2022-08-23T14:12:06.376Z,35.86
2022-08-23T14:14:38.109Z,33.77
2022-08-23T14:17:06.154Z,33.68
2022-08-23T14:22:26.065Z,33.79
2022-08-23T14:24:53.401Z,34.49
2022-08-23T14:27:20.846Z,34.24
2022-08-23T14:29:48.145Z,36.51
2022-08-23T14:32:15.558Z,36.00
2022-08-23T14:34:43.158Z,36.21
2022-08-23T14:39:58.751Z,35.46
2022-08-23T14:42:26.124Z,37.22
2022-08-23T14:44:53.537Z,36.60
2022-08-23T14:47:20.881Z,37.22
2022-08-23T14:49:53.242Z,37.42
2022-08-23T14:52:21.908Z,38.69
2022-08-23T14:54:49.826Z,37.71
2022-08-23T14:57:17.412Z,36.50
2022-08-23T14:59:44.847Z,36.12
2022-08-23T15:02:16.224Z,36.99
2022-08-23T15:04:44.690Z,36.54
2022-08-23T15:07:18.208Z,34.60
2022-08-23T15:09:48.614Z,35.86
2022-08-23T15:15:13.624Z,34.70
2022-08-23T15:17:52.130Z,36.48
2022-08-23T15:20:29.361Z,36.09
2022-08-23T15:22:56.863Z,35.10
2022-08-23T15:25:30.159Z,35.15
2022-08-23T15:27:57.713Z,35.34
2022-08-23T15:30:25.192Z,36.29
2022-08-23T15:32:56.519Z,36.74
2022-08-23T15:35:26.342Z,35.62
2022-08-23T15:37:56.443Z,36.02
2022-08-23T15:40:25.656Z,37.17
2022-08-23T15:42:53.628Z,38.12
2022-08-23T15:45:21.102Z,37.46
2022-08-23T15:47:51.529Z,38.31
2022-08-23T15:50:23.699Z,37.33
2022-08-23T15:52:51.384Z,37.85
2022-08-23T15:55:19.666Z,38.21
2022-08-23T15:57:50.406Z,39.19
2022-08-23T16:00:19.967Z,38.11
2022-08-23T16:03:19.044Z,38.32
2022-08-23T16:05:37.641Z,39.29
2022-08-23T16:08:06.364Z,38.79
2022-08-23T16:10:34.171Z,39.25
2022-08-23T16:13:01.598Z,39.71
2022-08-23T16:15:29.155Z,39.37
2022-08-23T16:17:56.423Z,38.90
2022-08-23T16:20:23.820Z,38.89
2022-08-23T16:22:51.196Z,39.61
2022-08-23T16:25:18.570Z,39.56
2022-08-23T16:27:45.938Z,38.97
2022-08-23T16:30:14.140Z,39.13
2022-08-23T16:32:41.905Z,39.37
2022-08-23T16:35:10.071Z,39.71
2022-08-23T16:37:37.725Z,39.94
2022-08-23T16:40:07.823Z,40.36
2022-08-23T16:42:35.323Z,39.59
2022-08-23T16:45:02.811Z,39.30
2022-08-23T16:47:33.643Z,39.16
2022-08-23T16:50:00.986Z,39.28
2022-08-23T16:52:34.304Z,40.47
2022-08-23T16:55:07.441Z,40.12
2022-08-23T16:57:34.812Z,41.01
2022-08-23T17:00:02.339Z,40.31
2022-08-23T17:02:35.086Z,40.47
2022-08-23T17:05:04.674Z,39.57
2022-08-23T17:07:32.424Z,40.45
2022-08-23T17:10:00.162Z,40.30
2022-08-23T17:12:28.535Z,40.29
2022-08-23T17:14:57.271Z,39.78
2022-08-23T17:17:25.165Z,41.44
2022-08-23T17:19:52.460Z,40.84
2022-08-23T17:22:20.354Z,40.61
2022-08-23T17:24:47.751Z,41.02
2022-08-23T17:27:20.577Z,41.83
2022-08-23T17:29:48.008Z,40.59
2022-08-23T17:32:15.391Z,40.36
2022-08-23T17:34:42.696Z,40.38
2022-08-23T17:37:19.280Z,40.96
2022-08-23T17:39:47.668Z,42.13
2022-08-23T17:42:15.183Z,42.29
2022-08-23T17:44:42.551Z,42.30
2022-08-23T17:47:15.564Z,42.56
2022-08-23T17:49:45.306Z,42.53
2022-08-23T17:52:13.107Z,42.05
2022-08-23T17:54:41.196Z,42.87
2022-08-23T17:57:11.017Z,43.05
2022-08-23T17:59:38.780Z,43.58
2022-08-23T18:02:06.869Z,43.78
2022-08-23T18:04:34.451Z,44.11
2022-08-23T18:07:02.478Z,44.18
2022-08-23T18:09:30.298Z,44.44
2022-08-23T18:11:57.803Z,44.50
2022-08-23T18:14:27.695Z,44.55
2022-08-23T18:16:56.087Z,44.88
2022-08-23T18:19:24.348Z,45.61
2022-08-23T18:21:51.711Z,46.46
2022-08-23T18:24:19.969Z,46.49
2022-08-23T18:27:06.806Z,46.62
2022-08-23T18:29:36.527Z,47.32
2022-08-23T18:32:08.323Z,46.59
2022-08-23T18:34:38.003Z,46.35
2022-08-23T18:37:07.417Z,46.26
2022-08-23T18:39:34.816Z,46.93
2022-08-23T18:42:04.729Z,46.99
2022-08-23T18:44:32.421Z,47.23
2022-08-23T18:47:02.071Z,47.64
2022-08-23T18:49:29.639Z,48.08
2022-08-23T18:51:56.926Z,48.59
2022-08-23T18:54:24.325Z,48.98
2022-08-23T18:56:51.705Z,49.58
2022-08-23T18:59:19.262Z,50.14
2022-08-23T19:01:46.925Z,49.84
2022-08-23T19:04:14.994Z,51.12
2022-08-23T19:06:42.691Z,51.20
2022-08-23T19:09:12.923Z,51.56
2022-08-23T19:11:42.022Z,51.47
2022-08-23T19:14:11.345Z,51.75
2022-08-23T19:16:43.474Z,51.89
2022-08-23T19:19:13.228Z,50.69
2022-08-23T19:21:40.640Z,50.78
2022-08-23T19:24:08.049Z,50.73
2022-08-23T19:26:36.245Z,52.07
2022-08-23T19:29:09.108Z,52.23
2022-08-23T19:31:42.837Z,52.55
2022-08-23T19:34:11.363Z,52.68
2022-08-23T19:36:49.356Z,53.38
2022-08-23T19:39:24.728Z,54.18
2022-08-23T19:41:52.077Z,54.02
2022-08-23T19:44:19.436Z,54.07
2022-08-23T19:46:46.811Z,54.13
2022-08-23T19:49:15.715Z,53.42
2022-08-23T19:51:44.009Z,54.22
2022-08-23T19:54:12.863Z,54.12
2022-08-23T19:56:45.912Z,54.41
2022-08-23T19:59:19.535Z,54.54
2022-08-23T20:01:48.248Z,54.33
2022-08-23T20:04:16.072Z,54.46
2022-08-23T20:06:43.596Z,55.34
2022-08-23T20:09:11.508Z,54.80
2022-08-23T20:11:39.205Z,54.71
2022-08-23T20:14:07.693Z,54.27
2022-08-23T20:16:35.341Z,54.63
2022-08-23T20:19:03.523Z,54.13
2022-08-23T20:21:30.794Z,54.54
2022-08-23T20:24:01.291Z,53.87
2022-08-23T20:26:30.336Z,54.18
2022-08-23T20:28:59.712Z,54.44
2022-08-23T20:31:32.444Z,54.29
2022-08-23T20:34:00.147Z,53.83
2022-08-23T20:36:28.416Z,53.70
2022-08-23T20:38:58.412Z,54.75
2022-08-23T20:41:30.759Z,53.71
2022-08-23T20:43:59.155Z,53.31
2022-08-23T20:46:27.297Z,53.11
2022-08-23T20:48:57.653Z,53.62
2022-08-23T20:51:26.947Z,55.71
2022-08-23T20:53:56.196Z,53.99
2022-08-23T20:56:25.183Z,54.01
2022-08-23T20:58:52.622Z,53.37
2022-08-23T21:01:21.051Z,53.91
2022-08-23T21:03:48.767Z,54.04
2022-08-23T21:06:28.036Z,55.77
2022-08-23T21:08:58.784Z,55.67
2022-08-23T21:11:28.288Z,55.52
2022-08-23T21:13:57.192Z,55.10
2022-08-23T21:16:25.172Z,56.00
2022-08-23T21:18:55.511Z,56.52
2022-08-23T21:21:24.479Z,56.22
2022-08-23T21:23:52.250Z,56.43
2022-08-23T21:26:20.247Z,56.71
2022-08-23T21:28:48.269Z,56.56
2022-08-23T21:31:19.067Z,56.94
2022-08-23T21:33:47.015Z,56.01
2022-08-23T21:36:16.397Z,56.27
2022-08-23T21:38:45.509Z,56.35
2022-08-23T21:41:27.309Z,56.76
2022-08-23T21:43:54.718Z,57.21
2022-08-23T21:46:22.373Z,56.87
2022-08-23T21:48:49.962Z,56.96
2022-08-23T21:51:17.330Z,56.95
2022-08-23T21:53:44.704Z,57.83
2022-08-23T21:56:12.007Z,57.79
2022-08-23T21:58:39.755Z,57.44
2022-08-23T22:01:08.907Z,57.28
2022-08-23T22:03:36.547Z,56.83
2022-08-23T22:06:04.644Z,57.66
2022-08-23T22:08:32.154Z,58.03
2022-08-23T22:11:07.247Z,58.60
2022-08-23T22:13:35.596Z,58.40
2022-08-23T22:16:04.088Z,58.16
2022-08-23T22:18:31.797Z,58.51
2022-08-23T22:21:00.333Z,58.85
2022-08-23T22:23:29.392Z,58.27
2022-08-23T22:25:57.899Z,59.31
2022-08-23T22:28:25.526Z,58.75
2022-08-23T22:31:00.340Z,59.59
2022-08-23T22:33:27.880Z,59.33
2022-08-23T22:36:01.117Z,58.97
2022-08-23T22:38:28.490Z,58.92
2022-08-23T22:40:55.865Z,59.23
2022-08-23T22:43:23.422Z,59.16
2022-08-23T22:45:57.047Z,59.25
2022-08-23T22:48:26.684Z,59.37
2022-08-23T22:51:08.761Z,59.19
2022-08-23T22:53:37.374Z,59.04
2022-08-23T22:56:05.170Z,58.68
2022-08-23T22:58:33.642Z,58.93
2022-08-23T23:01:03.778Z,59.45
2022-08-23T23:03:41.595Z,59.92
2022-08-23T23:06:09.539Z,59.97
2022-08-23T23:08:37.783Z,59.79
2022-08-23T23:11:08.500Z,59.85
2022-08-23T23:13:36.347Z,59.86
2022-08-23T23:16:11.159Z,59.98
2022-08-23T23:18:40.299Z,60.49
2022-08-23T23:21:09.003Z,59.79
2022-08-23T23:23:37.451Z,59.56
2022-08-23T23:26:08.001Z,59.49
2022-08-23T23:28:35.348Z,60.11
2022-08-23T23:31:04.450Z,60.02
2022-08-23T23:33:33.265Z,60.57
2022-08-23T23:36:01.308Z,60.69
2022-08-23T23:38:28.790Z,60.43
2022-08-23T23:40:56.092Z,60.68
2022-08-23T23:43:23.419Z,60.54
2022-08-23T23:45:50.775Z,60.75
2022-08-23T23:48:18.126Z,61.08
2022-08-23T23:50:46.666Z,61.50
2022-08-23T23:53:15.283Z,62.99
2022-08-23T23:55:43.774Z,61.93
2022-08-23T23:58:11.247Z,63.09
